createdAt,value
2023-08-08T00:01:30.680Z,17.86
2023-08-08T00:03:57.991Z,17.83
2023-08-08T00:06:24.864Z,17.88
2023-08-08T00:08:52.068Z,17.87
2023-08-08T00:11:18.970Z,17.83
2023-08-08T00:13:46.236Z,17.78
2023-08-08T00:16:13.086Z,17.78
2023-08-08T00:18:40.296Z,17.82
2023-08-08T00:21:07.170Z,17.80
2023-08-08T00:23:34.313Z,17.80
2023-08-08T00:26:01.188Z,17.78
2023-08-08T00:28:28.358Z,17.80
2023-08-08T00:30:55.194Z,17.75
2023-08-08T00:33:22.324Z,17.74
2023-08-08T00:35:49.148Z,17.75
2023-08-08T00:38:17.630Z,17.70
2023-08-08T00:40:44.441Z,17.72
2023-08-08T00:43:11.594Z,17.68
2023-08-08T00:45:38.935Z,17.68
2023-08-08T00:48:06.365Z,17.69
2023-08-08T00:50:33.199Z,17.68
2023-08-08T00:53:00.311Z,17.66
2023-08-08T00:55:27.179Z,17.66
2023-08-08T00:57:54.292Z,17.67
2023-08-08T01:00:21.175Z,17.60
2023-08-08T01:02:48.522Z,17.60
2023-08-08T01:05:15.631Z,17.62
2023-08-08T01:07:53.284Z,17.57
2023-08-08T01:10:24.067Z,17.56
2023-08-08T01:12:58.919Z,17.55
2023-08-08T01:15:25.902Z,17.54
2023-08-08T01:17:53.056Z,17.54
2023-08-08T01:20:20.086Z,17.51
2023-08-08T01:22:56.667Z,17.46
2023-08-08T01:25:23.548Z,17.40
2023-08-08T01:27:50.643Z,17.39
2023-08-08T01:30:17.594Z,17.40
2023-08-08T01:32:44.794Z,17.38
2023-08-08T01:35:11.692Z,17.36
2023-08-08T01:37:53.892Z,17.35
2023-08-08T01:40:20.984Z,17.36
2023-08-08T01:42:49.104Z,17.35
2023-08-08T01:45:19.083Z,17.31
2023-08-08T01:47:52.892Z,17.29
2023-08-08T01:50:19.765Z,17.26
2023-08-08T01:52:46.888Z,17.25
2023-08-08T01:55:13.806Z,17.26
2023-08-08T01:57:40.943Z,17.20
2023-08-08T02:00:09.145Z,17.20
2023-08-08T02:02:36.947Z,17.16
2023-08-08T02:05:04.178Z,17.16
2023-08-08T02:07:31.305Z,17.14
2023-08-08T02:09:58.283Z,17.16
2023-08-08T02:12:25.424Z,17.14
2023-08-08T02:14:52.286Z,17.14
2023-08-08T02:17:19.795Z,17.11
2023-08-08T02:19:46.657Z,17.11
2023-08-08T02:22:13.749Z,17.09
2023-08-08T02:24:40.656Z,17.06
2023-08-08T02:27:07.873Z,17.10
2023-08-08T02:29:34.722Z,17.04
2023-08-08T02:32:02.184Z,17.00
2023-08-08T02:34:29.317Z,17.00
2023-08-08T02:36:56.446Z,16.97
2023-08-08T02:39:23.288Z,16.99
2023-08-08T02:41:50.428Z,17.01
2023-08-08T02:44:17.344Z,16.97
2023-08-08T02:46:44.541Z,16.96
2023-08-08T02:49:11.368Z,16.96
2023-08-08T02:51:38.468Z,16.93
2023-08-08T02:54:05.338Z,16.91
2023-08-08T02:56:32.461Z,16.88
2023-08-08T02:58:59.516Z,16.87
2023-08-08T03:01:26.814Z,16.91
2023-08-08T03:03:53.720Z,16.87
2023-08-08T03:06:21.241Z,16.84
2023-08-08T03:08:48.105Z,16.84
2023-08-08T03:11:15.228Z,16.83
2023-08-08T03:13:42.080Z,16.79
2023-08-08T03:16:09.267Z,16.80
2023-08-08T03:18:36.162Z,16.78
2023-08-08T03:21:03.455Z,16.79
2023-08-08T03:23:30.281Z,16.78
2023-08-08T03:25:57.464Z,16.75
2023-08-08T03:28:24.284Z,16.76
2023-08-08T03:30:51.390Z,16.80
2023-08-08T03:33:18.249Z,16.75
2023-08-08T03:35:45.395Z,16.70
2023-08-08T03:38:12.317Z,16.74
2023-08-08T03:40:39.567Z,16.69
2023-08-08T03:43:06.949Z,16.76
2023-08-08T03:45:34.096Z,16.76
2023-08-08T03:48:01.026Z,16.72
2023-08-08T03:50:28.217Z,16.75
2023-08-08T03:52:55.062Z,16.73
2023-08-08T03:55:22.233Z,16.73
2023-08-08T03:57:49.124Z,16.69
2023-08-08T04:00:16.850Z,16.70
2023-08-08T04:02:43.862Z,16.64
2023-08-08T04:05:11.045Z,16.69
2023-08-08T04:07:37.923Z,16.63
2023-08-08T04:10:05.645Z,16.70
2023-08-08T04:12:33.984Z,16.66
2023-08-08T04:15:01.256Z,16.66
2023-08-08T04:17:28.295Z,16.65
2023-08-08T04:19:55.693Z,16.64
2023-08-08T04:22:22.508Z,16.67
2023-08-08T04:24:49.638Z,16.60
2023-08-08T04:27:16.478Z,16.62
2023-08-08T04:29:43.617Z,16.57
2023-08-08T04:32:10.506Z,16.55
2023-08-08T04:34:37.614Z,16.58
2023-08-08T04:37:04.784Z,16.57
2023-08-08T04:39:31.937Z,16.59
2023-08-08T04:41:58.745Z,16.57
2023-08-08T04:44:25.904Z,16.54
2023-08-08T04:46:52.776Z,16.53
2023-08-08T04:49:20.116Z,16.53
2023-08-08T04:51:46.993Z,16.52
2023-08-08T04:54:14.141Z,16.54
2023-08-08T04:56:40.972Z,16.54
2023-08-08T04:59:08.259Z,16.55
2023-08-08T05:01:35.112Z,16.53
2023-08-08T05:04:02.259Z,16.53
2023-08-08T05:06:29.143Z,16.53
2023-08-08T05:08:57.895Z,16.59
2023-08-08T05:11:25.011Z,16.57
2023-08-08T05:13:52.101Z,16.56
2023-08-08T05:16:19.542Z,16.57
2023-08-08T05:18:46.774Z,16.59
2023-08-08T05:21:13.603Z,16.60
2023-08-08T05:23:40.808Z,16.63
2023-08-08T05:26:07.681Z,16.64
2023-08-08T05:28:34.802Z,16.64
2023-08-08T05:31:02.255Z,16.69
2023-08-08T05:33:31.334Z,16.68
2023-08-08T05:35:58.406Z,16.70
2023-08-08T05:38:25.552Z,16.79
2023-08-08T05:40:52.362Z,16.82
2023-08-08T05:43:19.628Z,16.81
2023-08-08T05:45:46.565Z,16.87
2023-08-08T05:48:14.138Z,16.88
2023-08-08T05:50:41.238Z,16.93
2023-08-08T05:53:08.537Z,16.96
2023-08-08T05:55:35.340Z,16.99
2023-08-08T05:58:02.530Z,17.01
2023-08-08T06:00:29.453Z,17.04
2023-08-08T06:02:57.216Z,17.09
2023-08-08T06:05:27.213Z,17.14
2023-08-08T06:07:56.084Z,17.20
2023-08-08T06:10:23.431Z,17.22
2023-08-08T06:12:50.597Z,17.24
2023-08-08T06:15:17.539Z,17.29
2023-08-08T06:17:44.704Z,17.34
2023-08-08T06:20:11.738Z,17.38
2023-08-08T06:22:40.141Z,17.42
2023-08-08T06:25:07.429Z,17.45
2023-08-08T06:27:34.575Z,17.52
2023-08-08T06:30:01.370Z,17.57
2023-08-08T06:32:28.891Z,17.64
2023-08-08T06:34:56.318Z,17.70
2023-08-08T06:37:23.435Z,17.75
2023-08-08T06:39:50.268Z,17.78
2023-08-08T06:42:17.425Z,17.80
2023-08-08T06:44:44.962Z,17.83
2023-08-08T06:47:13.373Z,17.89
2023-08-08T06:49:40.607Z,17.95
2023-08-08T06:52:07.939Z,17.97
2023-08-08T06:54:34.849Z,18.06
2023-08-08T06:57:03.160Z,18.10
2023-08-08T06:59:30.564Z,18.18
2023-08-08T07:01:57.961Z,18.21
2023-08-08T07:04:24.847Z,18.29
2023-08-08T07:06:52.089Z,18.26
2023-08-08T07:09:19.566Z,18.33
2023-08-08T07:11:47.116Z,18.39
2023-08-08T07:14:13.983Z,18.42
2023-08-08T07:16:41.212Z,18.48
2023-08-08T07:19:08.050Z,18.57
2023-08-08T07:21:35.233Z,18.57
2023-08-08T07:24:04.128Z,18.65
2023-08-08T07:26:31.305Z,18.69
2023-08-08T07:28:58.138Z,18.69
2023-08-08T07:31:25.473Z,18.76
2023-08-08T07:33:52.335Z,18.84
2023-08-08T07:36:19.444Z,18.81
2023-08-08T07:38:46.285Z,18.87
2023-08-08T07:41:13.446Z,18.95
2023-08-08T07:43:40.306Z,19.05
2023-08-08T07:46:07.450Z,19.10
2023-08-08T07:48:34.294Z,19.16
2023-08-08T07:51:01.410Z,19.17
2023-08-08T07:53:28.293Z,19.23
2023-08-08T07:55:55.465Z,19.25
2023-08-08T07:58:24.351Z,19.41
2023-08-08T08:00:53.167Z,19.43
2023-08-08T08:03:21.024Z,19.49
2023-08-08T08:05:48.302Z,19.56
2023-08-08T08:08:15.147Z,19.61
2023-08-08T08:10:42.298Z,19.61
2023-08-08T08:13:09.227Z,19.67
2023-08-08T08:15:36.752Z,19.67
2023-08-08T08:18:03.879Z,19.73
2023-08-08T08:20:31.102Z,19.81
2023-08-08T08:22:58.015Z,19.83
2023-08-08T08:25:25.195Z,19.91
2023-08-08T08:27:52.069Z,19.98
2023-08-08T08:30:20.114Z,20.02
2023-08-08T08:32:47.115Z,20.01
2023-08-08T08:35:15.032Z,20.07
2023-08-08T08:37:41.916Z,20.14
2023-08-08T08:40:10.097Z,20.18
2023-08-08T08:42:37.040Z,20.27
2023-08-08T08:45:05.871Z,20.28
2023-08-08T08:47:33.078Z,20.29
2023-08-08T08:50:01.350Z,20.31
2023-08-08T08:52:28.212Z,20.33
2023-08-08T08:54:55.375Z,20.37
2023-08-08T08:57:25.345Z,20.41
2023-08-08T08:59:52.971Z,20.37
2023-08-08T09:02:20.009Z,20.45
2023-08-08T09:04:47.171Z,20.52
2023-08-08T09:07:14.336Z,20.56
2023-08-08T09:09:43.970Z,20.68
2023-08-08T09:12:11.215Z,20.67
2023-08-08T09:14:41.105Z,20.67
2023-08-08T09:17:14.816Z,20.72
2023-08-08T09:19:45.630Z,20.73
2023-08-08T09:22:13.737Z,20.79
2023-08-08T09:24:41.563Z,20.84
2023-08-08T09:27:09.085Z,20.90
2023-08-08T09:29:36.339Z,20.99
2023-08-08T09:32:09.554Z,21.00
2023-08-08T09:34:36.760Z,21.04
2023-08-08T09:37:04.549Z,21.07
2023-08-08T09:39:31.763Z,21.12
2023-08-08T09:41:58.626Z,21.12
2023-08-08T09:44:27.737Z,21.13
2023-08-08T09:46:54.609Z,21.16
2023-08-08T09:49:22.930Z,21.12
2023-08-08T09:51:52.778Z,21.14
2023-08-08T09:54:19.898Z,21.24
2023-08-08T09:56:46.787Z,21.21
2023-08-08T09:59:14.080Z,21.24
2023-08-08T10:01:44.304Z,21.25
2023-08-08T10:04:13.132Z,21.28
2023-08-08T10:06:40.074Z,21.28
2023-08-08T10:09:08.271Z,21.40
2023-08-08T10:11:35.267Z,21.46
2023-08-08T10:14:03.409Z,21.48
2023-08-08T10:16:33.165Z,21.38
2023-08-08T10:19:01.075Z,21.43
2023-08-08T10:21:29.984Z,21.47
2023-08-08T10:24:08.170Z,21.52
2023-08-08T10:26:35.538Z,21.57
2023-08-08T10:29:02.755Z,21.62
2023-08-08T10:31:34.806Z,21.70
2023-08-08T10:34:06.123Z,21.61
2023-08-08T10:36:49.258Z,21.69
2023-08-08T10:39:18.348Z,21.72
2023-08-08T10:41:51.610Z,21.81
2023-08-08T10:44:25.168Z,21.85
2023-08-08T10:46:53.417Z,21.85
2023-08-08T10:49:20.678Z,21.78
2023-08-08T10:51:48.355Z,21.82
2023-08-08T10:54:16.920Z,21.92
2023-08-08T10:56:57.016Z,22.01
2023-08-08T10:59:26.197Z,22.06
2023-08-08T11:01:53.662Z,22.09
2023-08-08T11:04:22.655Z,22.05
2023-08-08T11:06:51.340Z,22.06
2023-08-08T11:09:19.116Z,22.04
2023-08-08T11:11:46.165Z,22.00
2023-08-08T11:14:20.688Z,21.95
2023-08-08T11:16:48.394Z,22.01
2023-08-08T11:19:17.175Z,22.03
2023-08-08T11:21:45.305Z,22.09
2023-08-08T11:24:12.922Z,22.11
2023-08-08T11:26:41.449Z,22.10
2023-08-08T11:29:08.656Z,22.10
2023-08-08T11:31:36.037Z,22.08
2023-08-08T11:34:03.484Z,22.08
2023-08-08T11:36:31.047Z,22.10
2023-08-08T11:38:58.810Z,22.09
2023-08-08T11:41:27.289Z,22.14
2023-08-08T11:43:54.534Z,22.15
2023-08-08T11:46:24.379Z,22.15
2023-08-08T11:48:51.708Z,22.16
2023-08-08T11:51:18.609Z,22.13
2023-08-08T11:53:50.990Z,22.14
2023-08-08T11:56:19.187Z,22.18
2023-08-08T11:58:47.622Z,22.15
2023-08-08T12:01:15.493Z,22.17
2023-08-08T12:03:42.757Z,22.17
2023-08-08T12:06:16.318Z,22.14
2023-08-08T12:08:45.461Z,22.17
2023-08-08T12:11:12.928Z,22.23
2023-08-08T12:13:41.412Z,22.23
2023-08-08T12:16:16.712Z,22.37
2023-08-08T12:18:45.474Z,22.43
2023-08-08T12:21:12.386Z,22.41
2023-08-08T12:23:39.594Z,22.44
2023-08-08T12:26:06.630Z,22.46
2023-08-08T12:28:33.908Z,22.36
2023-08-08T12:31:01.297Z,22.39
2023-08-08T12:33:28.684Z,22.51
2023-08-08T12:35:55.667Z,22.56
2023-08-08T12:38:23.242Z,22.53
2023-08-08T12:40:50.104Z,22.55
2023-08-08T12:43:20.081Z,22.62
2023-08-08T12:45:47.296Z,22.66
2023-08-08T12:48:14.481Z,22.76
2023-08-08T12:50:41.977Z,22.81
2023-08-08T12:53:09.238Z,22.77
2023-08-08T12:55:36.360Z,22.83
2023-08-08T12:58:04.167Z,22.87
2023-08-08T13:00:31.069Z,22.87
2023-08-08T13:02:58.863Z,22.91
2023-08-08T13:05:26.877Z,22.96
2023-08-08T13:07:54.238Z,23.00
2023-08-08T13:10:21.308Z,22.95
2023-08-08T13:12:49.222Z,22.98
2023-08-08T13:15:16.250Z,23.00
2023-08-08T13:17:43.557Z,23.01
2023-08-08T13:20:11.203Z,23.02
2023-08-08T13:22:38.799Z,23.04
2023-08-08T13:25:06.527Z,23.07
2023-08-08T13:27:33.822Z,23.14
2023-08-08T13:30:00.875Z,23.25
2023-08-08T13:32:28.236Z,23.19
2023-08-08T13:34:55.143Z,23.14
2023-08-08T13:37:22.369Z,23.32
2023-08-08T13:39:49.280Z,23.36
2023-08-08T13:42:16.500Z,23.32
2023-08-08T13:44:43.333Z,23.29
2023-08-08T13:47:10.917Z,23.28
2023-08-08T13:49:37.871Z,23.21
2023-08-08T13:52:05.295Z,23.23
2023-08-08T13:54:32.210Z,23.26
2023-08-08T13:56:59.431Z,23.28
2023-08-08T13:59:27.810Z,23.30
2023-08-08T14:01:54.988Z,23.32
2023-08-08T14:04:21.956Z,23.31
2023-08-08T14:06:49.196Z,23.31
2023-08-08T14:09:18.033Z,23.38
2023-08-08T14:11:47.082Z,23.40
2023-08-08T14:14:13.922Z,23.38
2023-08-08T14:16:41.135Z,23.41
2023-08-08T14:19:08.124Z,23.43
2023-08-08T14:21:35.331Z,23.37
2023-08-08T14:24:03.102Z,23.42
2023-08-08T14:26:30.246Z,23.44
2023-08-08T14:28:57.094Z,23.46
2023-08-08T14:31:24.315Z,23.50
2023-08-08T14:33:51.182Z,23.49
2023-08-08T14:36:18.261Z,23.55
2023-08-08T14:38:46.999Z,23.63
2023-08-08T14:41:14.300Z,23.65
2023-08-08T14:43:41.177Z,23.59
2023-08-08T14:46:08.427Z,23.63
2023-08-08T14:48:35.250Z,23.59
2023-08-08T14:51:03.298Z,23.60
2023-08-08T14:53:30.383Z,23.65
2023-08-08T14:55:57.577Z,23.67
2023-08-08T14:58:25.530Z,23.62
2023-08-08T15:00:54.294Z,23.63
2023-08-08T15:03:21.375Z,23.50
2023-08-08T15:05:49.903Z,23.47
2023-08-08T15:08:17.536Z,23.50
2023-08-08T15:10:44.344Z,23.49
2023-08-08T15:13:11.818Z,23.45
2023-08-08T15:15:38.597Z,23.34
2023-08-08T15:18:05.830Z,23.41
2023-08-08T15:20:32.791Z,23.41
2023-08-08T15:22:59.890Z,23.42
2023-08-08T15:25:26.669Z,23.42
2023-08-08T15:27:53.799Z,23.42
2023-08-08T15:30:20.651Z,23.43
2023-08-08T15:32:47.806Z,23.44
2023-08-08T15:35:14.607Z,23.42
2023-08-08T15:37:41.744Z,23.42
2023-08-08T15:40:09.211Z,23.38
2023-08-08T15:42:36.362Z,23.33
2023-08-08T15:45:03.386Z,23.28
2023-08-08T15:47:30.599Z,23.22
2023-08-08T15:49:57.463Z,23.19
2023-08-08T15:52:24.663Z,23.16
2023-08-08T15:54:52.297Z,23.09
2023-08-08T15:57:19.619Z,23.12
2023-08-08T15:59:46.508Z,23.10
2023-08-08T16:02:14.745Z,23.01
2023-08-08T16:04:42.543Z,23.03
2023-08-08T16:07:10.206Z,23.07
2023-08-08T16:09:37.018Z,23.07
2023-08-08T16:12:04.362Z,23.03
2023-08-08T16:14:31.214Z,23.01
2023-08-08T16:16:59.975Z,22.94
2023-08-08T16:19:27.087Z,22.96
2023-08-08T16:21:54.286Z,22.98
2023-08-08T16:24:21.070Z,22.96
2023-08-08T16:26:48.384Z,22.96
2023-08-08T16:29:15.161Z,22.94
2023-08-08T16:31:42.687Z,22.97
2023-08-08T16:34:09.717Z,22.92
2023-08-08T16:36:38.593Z,22.90
2023-08-08T16:39:16.773Z,22.88
2023-08-08T16:41:45.512Z,22.86
2023-08-08T16:44:12.295Z,22.83
2023-08-08T16:46:39.425Z,22.78
2023-08-08T16:49:08.731Z,22.81
2023-08-08T16:51:36.148Z,22.78
2023-08-08T16:54:03.007Z,22.86
2023-08-08T16:56:31.318Z,22.79
2023-08-08T16:58:58.987Z,22.76
2023-08-08T17:01:26.323Z,22.77
2023-08-08T17:03:53.076Z,22.68
2023-08-08T17:06:20.124Z,22.63
2023-08-08T17:08:47.048Z,22.66
2023-08-08T17:11:14.273Z,22.64
2023-08-08T17:13:41.056Z,22.63
2023-08-08T17:16:08.117Z,22.62
2023-08-08T17:18:34.909Z,22.64
2023-08-08T17:21:02.523Z,22.57
2023-08-08T17:23:29.407Z,22.54
2023-08-08T17:25:56.494Z,22.52
2023-08-08T17:28:23.293Z,22.51
2023-08-08T17:30:50.418Z,22.51
2023-08-08T17:33:17.287Z,22.47
2023-08-08T17:35:46.073Z,22.41
2023-08-08T17:38:12.869Z,22.43
2023-08-08T17:40:40.060Z,22.35
2023-08-08T17:43:07.978Z,22.32
2023-08-08T17:45:35.650Z,22.30
2023-08-08T17:48:02.499Z,22.30
2023-08-08T17:50:29.619Z,22.28
2023-08-08T17:52:56.420Z,22.23
2023-08-08T17:55:24.679Z,22.24
2023-08-08T17:57:51.471Z,22.24
2023-08-08T18:00:18.748Z,22.17
2023-08-08T18:02:45.671Z,22.12
2023-08-08T18:05:14.566Z,22.11
2023-08-08T18:07:41.489Z,22.05
2023-08-08T18:10:08.966Z,22.05
2023-08-08T18:12:35.805Z,21.92
2023-08-08T18:15:03.873Z,21.79
2023-08-08T18:17:30.725Z,21.67
2023-08-08T18:19:57.931Z,21.63
2023-08-08T18:22:24.817Z,21.62
2023-08-08T18:24:51.968Z,21.51
2023-08-08T18:27:18.702Z,21.50
2023-08-08T18:29:45.921Z,21.49
2023-08-08T18:32:12.819Z,21.39
2023-08-08T18:34:39.936Z,21.36
2023-08-08T18:37:06.760Z,21.34
2023-08-08T18:39:33.950Z,21.31
2023-08-08T18:42:01.187Z,21.25
2023-08-08T18:44:28.478Z,21.22
2023-08-08T18:46:55.229Z,21.21
2023-08-08T18:49:22.374Z,21.13
2023-08-08T18:51:49.164Z,21.20
2023-08-08T18:54:16.323Z,21.08
2023-08-08T18:56:43.120Z,21.06
2023-08-08T18:59:10.189Z,21.05
2023-08-08T19:01:37.184Z,21.03
2023-08-08T19:04:04.522Z,20.94
2023-08-08T19:06:31.374Z,20.93
2023-08-08T19:08:58.532Z,20.87
2023-08-08T19:11:25.521Z,20.89
2023-08-08T19:13:52.670Z,20.81
2023-08-08T19:16:19.538Z,20.80
2023-08-08T19:18:46.768Z,20.74
2023-08-08T19:21:14.127Z,20.80
2023-08-08T19:23:42.741Z,20.71
2023-08-08T19:26:09.919Z,20.66
2023-08-08T19:28:37.353Z,20.60
2023-08-08T19:31:04.721Z,20.56
2023-08-08T19:33:32.181Z,20.57
2023-08-08T19:36:01.370Z,20.51
2023-08-08T19:38:28.713Z,20.47
2023-08-08T19:40:55.753Z,20.42
2023-08-08T19:43:23.003Z,20.41
2023-08-08T19:45:49.984Z,20.45
2023-08-08T19:48:17.439Z,20.37
2023-08-08T19:50:44.381Z,20.36
2023-08-08T19:53:11.493Z,20.35
2023-08-08T19:55:38.475Z,20.33
2023-08-08T19:58:05.781Z,20.31
2023-08-08T20:00:32.632Z,20.30
2023-08-08T20:02:59.899Z,20.26
2023-08-08T20:05:26.813Z,20.23
2023-08-08T20:07:55.920Z,20.19
2023-08-08T20:10:23.358Z,20.14
2023-08-08T20:12:50.699Z,20.07
2023-08-08T20:15:17.804Z,20.11
2023-08-08T20:17:45.035Z,20.09
2023-08-08T20:20:12.007Z,20.07
2023-08-08T20:22:39.602Z,20.02
2023-08-08T20:25:07.076Z,19.99
2023-08-08T20:27:34.102Z,19.96
2023-08-08T20:30:00.846Z,19.93
2023-08-08T20:32:27.968Z,19.91
2023-08-08T20:34:54.811Z,19.87
2023-08-08T20:37:21.891Z,19.88
2023-08-08T20:39:48.707Z,19.91
2023-08-08T20:42:15.801Z,19.85
2023-08-08T20:44:42.675Z,19.82
2023-08-08T20:47:09.852Z,19.76
2023-08-08T20:49:36.792Z,19.70
2023-08-08T20:52:03.962Z,19.71
2023-08-08T20:54:30.877Z,19.70
2023-08-08T20:56:59.040Z,19.68
2023-08-08T20:59:26.748Z,19.61
2023-08-08T21:01:54.352Z,19.63
2023-08-08T21:04:22.238Z,19.61
2023-08-08T21:06:49.389Z,19.57
2023-08-08T21:09:16.308Z,19.59
2023-08-08T21:11:43.535Z,19.54
2023-08-08T21:14:10.420Z,19.52
2023-08-08T21:16:37.576Z,19.54
2023-08-08T21:19:04.475Z,19.44
2023-08-08T21:21:31.662Z,19.45
2023-08-08T21:23:58.459Z,19.51
2023-08-08T21:26:30.128Z,19.52
2023-08-08T21:29:05.780Z,19.51
2023-08-08T21:31:33.274Z,19.52
2023-08-08T21:34:00.127Z,19.52
2023-08-08T21:36:27.205Z,19.49
2023-08-08T21:38:54.014Z,19.50
2023-08-08T21:41:21.110Z,19.49
2023-08-08T21:43:48.181Z,19.47
2023-08-08T21:46:15.358Z,19.48
2023-08-08T21:48:42.142Z,19.45
2023-08-08T21:51:11.374Z,19.39
2023-08-08T21:53:38.549Z,19.40
2023-08-08T21:56:05.875Z,19.38
2023-08-08T21:58:33.304Z,19.34
2023-08-08T22:01:00.440Z,19.35
2023-08-08T22:03:27.375Z,19.36
2023-08-08T22:05:54.449Z,19.33
2023-08-08T22:08:21.183Z,19.27
2023-08-08T22:10:48.268Z,19.27
2023-08-08T22:13:15.594Z,19.25
2023-08-08T22:15:42.696Z,19.18
2023-08-08T22:18:22.115Z,19.17
2023-08-08T22:20:49.342Z,19.16
2023-08-08T22:23:20.274Z,19.19
2023-08-08T22:25:50.002Z,19.11
2023-08-08T22:28:17.773Z,19.06
2023-08-08T22:30:44.882Z,19.08
2023-08-08T22:33:11.970Z,19.03
2023-08-08T22:35:39.053Z,19.01
2023-08-08T22:38:05.929Z,19.01
2023-08-08T22:40:32.999Z,18.98
2023-08-08T22:42:59.792Z,18.97
2023-08-08T22:47:55.910Z,18.96
2023-08-08T22:50:24.655Z,18.91
2023-08-08T22:52:51.575Z,18.87
2023-08-08T22:55:18.706Z,18.86
2023-08-08T22:57:45.478Z,18.84
2023-08-08T23:00:13.622Z,18.81
2023-08-08T23:02:41.097Z,18.82
2023-08-08T23:05:08.898Z,18.81
2023-08-08T23:07:35.656Z,18.80
2023-08-08T23:10:02.721Z,18.71
2023-08-08T23:12:29.536Z,18.69
2023-08-08T23:14:56.683Z,18.76
2023-08-08T23:17:23.486Z,18.73
2023-08-08T23:19:50.846Z,18.73
2023-08-08T23:22:17.611Z,18.68
2023-08-08T23:24:44.789Z,18.66
2023-08-08T23:27:11.742Z,18.68
2023-08-08T23:29:38.990Z,18.65
2023-08-08T23:32:05.884Z,18.65
2023-08-08T23:34:33.040Z,18.66
2023-08-08T23:37:00.534Z,18.65
2023-08-08T23:39:28.481Z,18.69
2023-08-08T23:41:55.236Z,18.63
2023-08-08T23:44:22.305Z,18.61
2023-08-08T23:46:49.164Z,18.63
2023-08-08T23:49:16.251Z,18.59
2023-08-08T23:51:45.682Z,18.62
2023-08-08T23:54:13.338Z,18.58
2023-08-08T23:56:41.758Z,18.61
2023-08-08T23:59:09.433Z,18.57
